To NAV CANADA Home Page Login to a new session Search on AWWS site Feedback and Comments Disclaimer Vers la page française équivalente Tips FAQ What's new on the site To the Forecasts and Observations / NOTAM section To "File a Flight Plan" website Publications and other links Update of the User's profile FIC Telephone Numbers My Weather Data Folder Route Weather Data Regional Weather Data Local Weather Data To the Forecasts and Observations / NOTAM section
Request Generated 03/27/2015 at 20:51:36 UTC . Weather information available at that time is displayed.

METAR/TAF

HIGH LEVEL/AB    (show WxCam)

SPECI CYOJ 272022Z 14004KT 15SM SCT003 BKN005 BKN120 02/01 A2970 RMK
SC4SC2AC1 SLP079=
METAR CYOJ 272000Z 18003KT 090V190 10SM OVC003 01/01 A2971 RMK ST8
SLP083=
SPECI CYOJ 271925Z 14004KT 4SM BR OVC003 01/01 A2971 RMK ST8 SLP083=
SPECI CYOJ 271920Z 14005KT 2 1/4SM BR OVC003 01/01 A2972 RMK FG3SC5
SLP084=
METAR CYOJ 271900Z 14005KT 130V190 1 1/4SM BR OVC003 01/01 A2972 RMK
FG7SC1 SLP087=
SPECI CYOJ 271842Z 16005KT 120V200 1 1/4SM BR OVC003 01/01 A2973 RMK
FG7SC1 SLP089=
SPECI CYOJ 271814Z 16006KT 1SM BR OVC003 00/00 A2972 RMK FG7SC1
SLP086=
SPECI CYOJ 271806Z 16007KT 3/4SM BR VV003 00/00 A2972 RMK FG8 SLP087=
METAR CYOJ 271800Z 16007KT 3/8SM FG VV003 00/00 A2973 RMK FG8 SLP089=

TAF CYOJ 271838Z 2719/2807 16006KT 1/4SM FG VV003
BECMG 2719/2721 P6SM NSW SCT012
FM280000 28006KT P6SM SKC
RMK NXT FCST BY 280100Z=
Your time UTC time
Weather data provided by Environment Canada and NAV CANADA